createdAt,value
2018-10-19T00:08:55.925Z,81.6
2018-10-19T00:25:33.787Z,81.6
2018-10-19T00:42:11.594Z,81.2
2018-10-19T00:58:49.324Z,81.2
2018-10-19T01:15:27.330Z,81.2
2018-10-19T01:32:05.890Z,80.4
2018-10-19T01:48:43.165Z,80.4
2018-10-19T02:05:20.952Z,80.4
2018-10-19T02:21:58.496Z,80.4
2018-10-19T02:38:35.969Z,80.4
2018-10-19T02:55:13.077Z,80.4
2018-10-19T03:11:50.292Z,80.4
2018-10-19T03:28:27.472Z,80.4
2018-10-19T03:45:04.420Z,80.4
2018-10-19T04:01:41.528Z,80.4
2018-10-19T04:18:18.230Z,80.4
2018-10-19T04:34:55.217Z,80.4
2018-10-19T04:51:32.033Z,80.4
2018-10-19T05:08:08.622Z,80.4
2018-10-19T05:24:45.994Z,80.8
2018-10-19T05:41:21.373Z,80.8
2018-10-19T05:57:57.685Z,80.8
2018-10-19T06:14:34.145Z,80.8
2018-10-19T06:31:10.235Z,81.2
2018-10-19T06:47:46.648Z,81.6
2018-10-19T07:04:23.200Z,81.2
2018-10-19T07:20:59.683Z,81.2
2018-10-19T07:37:36.449Z,81.6
2018-10-19T07:54:13.287Z,81.6
2018-10-19T08:10:50.616Z,81.2
2018-10-19T08:27:28.298Z,81.6
2018-10-19T08:37:27.040Z,81.2
2018-10-19T08:50:46.551Z,79.2
2018-10-19T09:07:24.369Z,79.6
2018-10-19T09:20:44.266Z,78.0
2018-10-19T09:37:23.267Z,77.2
2018-10-19T09:50:42.765Z,76.8
2018-10-19T10:07:22.986Z,76.0
2018-10-19T10:24:03.642Z,75.2
2018-10-19T10:40:44.331Z,74.8
2018-10-19T10:57:28.015Z,73.2
2018-10-19T11:14:07.434Z,71.6
2018-10-19T11:30:49.146Z,72.0
2018-10-19T11:47:31.649Z,68.8
2018-10-19T12:04:14.199Z,69.2
2018-10-19T12:20:56.952Z,68.4
2018-10-19T12:37:39.871Z,67.6
2018-10-19T12:54:23.591Z,65.2
2018-10-19T13:11:06.142Z,66.4
2018-10-19T13:27:49.108Z,64.8
2018-10-19T13:44:31.536Z,65.2
2018-10-19T14:01:15.304Z,64.8
2018-10-19T14:17:57.055Z,64.4
2018-10-19T14:34:39.950Z,64.4
2018-10-19T14:51:23.851Z,64.0
2018-10-19T15:08:06.941Z,64.8
2018-10-19T15:24:47.896Z,65.6
2018-10-19T15:41:29.179Z,65.6
2018-10-19T15:58:11.767Z,66.0
2018-10-19T16:14:52.822Z,66.4
2018-10-19T16:28:13.723Z,66.8
2018-10-19T16:44:54.645Z,67.6
2018-10-19T17:01:35.093Z,68.8
2018-10-19T17:18:15.482Z,69.2
2018-10-19T17:34:56.151Z,70.0
2018-10-19T17:51:35.265Z,70.4
2018-10-19T18:08:15.056Z,71.2
2018-10-19T18:24:54.476Z,71.6
2018-10-19T18:41:34.600Z,72.0
2018-10-19T18:58:13.018Z,72.8
2018-10-19T19:14:52.110Z,72.8
2018-10-19T19:31:30.952Z,73.2
2018-10-19T19:48:09.640Z,74.0
2018-10-19T20:04:48.293Z,74.0
2018-10-19T20:21:26.880Z,74.4
2018-10-19T20:38:05.093Z,74.8
2018-10-19T20:54:43.218Z,75.2
2018-10-19T21:11:21.283Z,75.2
2018-10-19T21:27:59.187Z,75.6
2018-10-19T21:44:36.848Z,75.2
2018-10-19T22:01:14.004Z,75.6
2018-10-19T22:17:51.118Z,75.6
2018-10-19T22:34:29.321Z,76.0
2018-10-19T22:51:04.857Z,76.4
2018-10-19T23:07:41.622Z,76.4
2018-10-19T23:24:18.321Z,76.4
2018-10-19T23:40:54.935Z,76.8
2018-10-19T23:57:31.383Z,76.8
